createdAt,value
2022-08-18T00:02:29.998Z,100.00
2022-08-18T00:04:57.378Z,100.00
2022-08-18T00:07:31.956Z,100.00
2022-08-18T00:10:00.588Z,100.00
2022-08-18T00:12:45.182Z,100.00
2022-08-18T00:15:14.410Z,100.00
2022-08-18T00:17:42.468Z,100.00
2022-08-18T00:20:12.945Z,100.00
2022-08-18T00:22:42.701Z,100.00
2022-08-18T00:25:15.026Z,100.00
2022-08-18T00:27:44.134Z,100.00
2022-08-18T00:30:16.908Z,100.00
2022-08-18T00:32:47.896Z,100.00
2022-08-18T00:35:26.701Z,100.00
2022-08-18T00:37:58.841Z,100.00
2022-08-18T00:40:32.359Z,100.00
2022-08-18T00:43:05.183Z,100.00
2022-08-18T00:45:36.634Z,100.00
2022-08-18T00:48:04.676Z,100.00
2022-08-18T00:51:04.518Z,100.00
2022-08-18T00:53:47.701Z,100.00
2022-08-18T00:56:25.559Z,100.00
2022-08-18T00:59:04.271Z,100.00
2022-08-18T01:01:33.026Z,100.00
2022-08-18T01:04:16.734Z,100.00
2022-08-18T01:06:48.498Z,100.00
2022-08-18T01:09:20.395Z,100.00
2022-08-18T01:11:46.966Z,100.00
2022-08-18T01:14:16.140Z,100.00
2022-08-18T01:17:02.212Z,100.00
2022-08-18T01:19:49.964Z,100.00
2022-08-18T01:22:26.663Z,100.00
2022-08-18T01:25:15.865Z,100.00
2022-08-18T01:27:43.198Z,100.00
2022-08-18T01:30:14.312Z,100.00
2022-08-18T01:32:41.812Z,100.00
2022-08-18T01:35:13.607Z,100.00
2022-08-18T01:37:43.381Z,100.00
2022-08-18T01:41:21.973Z,100.00
2022-08-18T01:43:03.568Z,100.00
2022-08-18T01:45:33.393Z,100.00
2022-08-18T01:48:03.896Z,100.00
2022-08-18T01:50:34.294Z,100.00
2022-08-18T01:53:05.976Z,100.00
2022-08-18T01:55:38.051Z,100.00
2022-08-18T01:58:06.932Z,100.00
2022-08-18T02:00:36.694Z,100.00
2022-08-18T02:03:10.336Z,100.00
2022-08-18T02:05:42.737Z,100.00
2022-08-18T02:08:12.367Z,100.00
2022-08-18T02:10:39.842Z,100.00
2022-08-18T02:13:06.506Z,100.00
2022-08-18T02:15:35.216Z,100.00
2022-08-18T02:18:02.162Z,100.00
2022-08-18T02:20:29.367Z,100.00
2022-08-18T02:22:58.558Z,100.00
2022-08-18T02:25:25.184Z,100.00
2022-08-18T02:27:54.131Z,100.00
2022-08-18T02:30:23.370Z,100.00
2022-08-18T02:32:52.170Z,100.00
2022-08-18T02:35:21.132Z,100.00
2022-08-18T02:37:50.208Z,100.00
2022-08-18T02:40:20.136Z,100.00
2022-08-18T02:42:47.528Z,100.00
2022-08-18T02:45:16.634Z,100.00
2022-08-18T02:47:46.002Z,100.00
2022-08-18T02:50:14.044Z,100.00
2022-08-18T02:52:41.383Z,100.00
2022-08-18T02:55:09.023Z,100.00
2022-08-18T02:57:35.594Z,100.00
2022-08-18T03:00:02.854Z,100.00
2022-08-18T03:02:29.483Z,100.00
2022-08-18T03:04:56.081Z,100.00
2022-08-18T03:07:22.674Z,100.00
2022-08-18T03:09:49.298Z,100.00
2022-08-18T03:12:15.980Z,100.00
2022-08-18T03:14:46.743Z,100.00
2022-08-18T03:17:14.897Z,100.00
2022-08-18T03:19:47.739Z,100.00
2022-08-18T03:22:27.273Z,100.00
2022-08-18T03:24:56.030Z,100.00
2022-08-18T03:27:27.807Z,100.00
2022-08-18T03:29:54.547Z,100.00
2022-08-18T03:32:21.259Z,100.00
2022-08-18T03:34:47.784Z,100.00
2022-08-18T03:37:16.049Z,100.00
2022-08-18T03:39:42.712Z,100.00
2022-08-18T03:42:14.050Z,100.00
2022-08-18T03:44:43.011Z,100.00
2022-08-18T03:47:11.611Z,100.00
2022-08-18T03:49:41.934Z,100.00
2022-08-18T03:52:12.276Z,100.00
2022-08-18T03:54:39.693Z,100.00
2022-08-18T03:57:11.026Z,100.00
2022-08-18T03:59:38.206Z,100.00
2022-08-18T04:02:05.499Z,100.00
2022-08-18T04:04:34.734Z,100.00
2022-08-18T04:07:08.826Z,100.00
2022-08-18T04:09:38.521Z,100.00
2022-08-18T04:12:17.388Z,100.00
2022-08-18T04:14:48.045Z,100.00
2022-08-18T04:17:15.136Z,100.00
2022-08-18T04:19:44.201Z,100.00
2022-08-18T04:22:17.335Z,100.00
2022-08-18T04:24:45.636Z,100.00
2022-08-18T04:27:12.368Z,100.00
2022-08-18T04:29:39.060Z,100.00
2022-08-18T04:32:05.806Z,100.00
2022-08-18T04:34:34.122Z,100.00
2022-08-18T04:37:05.561Z,100.00
2022-08-18T04:39:34.890Z,100.00
2022-08-18T04:42:05.207Z,100.00
2022-08-18T04:44:31.802Z,100.00
2022-08-18T04:46:58.408Z,100.00
2022-08-18T04:49:28.273Z,100.00
2022-08-18T04:52:26.764Z,100.00
2022-08-18T04:55:01.900Z,100.00
2022-08-18T04:57:29.198Z,100.00
2022-08-18T05:00:00.854Z,100.00
2022-08-18T05:02:27.923Z,100.00
2022-08-18T05:04:54.512Z,100.00
2022-08-18T05:07:25.638Z,100.00
2022-08-18T05:09:55.083Z,100.00
2022-08-18T05:12:25.747Z,100.00
2022-08-18T05:14:57.261Z,100.00
2022-08-18T05:17:30.527Z,100.00
2022-08-18T05:20:01.757Z,100.00
2022-08-18T05:22:31.050Z,100.00
2022-08-18T05:24:58.191Z,100.00
2022-08-18T05:27:27.762Z,100.00
2022-08-18T05:29:54.325Z,100.00
2022-08-18T05:32:37.310Z,100.00
2022-08-18T05:35:15.495Z,100.00
2022-08-18T05:37:45.083Z,100.00
2022-08-18T05:40:15.079Z,100.00
2022-08-18T05:42:42.750Z,100.00
2022-08-18T05:45:15.649Z,100.00
2022-08-18T05:47:46.975Z,100.00
2022-08-18T05:50:18.837Z,100.00
2022-08-18T05:52:54.601Z,100.00
2022-08-18T05:55:48.359Z,100.00
2022-08-18T05:58:33.087Z,100.00
2022-08-18T06:01:09.046Z,100.00
2022-08-18T06:03:46.544Z,100.00
2022-08-18T06:06:20.893Z,100.00
2022-08-18T06:09:10.987Z,100.00
2022-08-18T06:11:37.610Z,100.00
2022-08-18T06:14:07.186Z,100.00
2022-08-18T06:17:06.279Z,100.00
2022-08-18T06:19:39.080Z,100.00
2022-08-18T06:22:15.621Z,100.00
2022-08-18T06:25:00.877Z,100.00
2022-08-18T06:27:41.011Z,100.00
2022-08-18T06:30:21.556Z,100.00
2022-08-18T06:33:04.168Z,100.00
2022-08-18T06:35:45.571Z,100.00
2022-08-18T06:38:36.712Z,100.00
2022-08-18T06:41:40.601Z,100.00
2022-08-18T06:44:20.150Z,100.00
2022-08-18T06:47:04.165Z,100.00
2022-08-18T06:49:56.944Z,100.00
2022-08-18T06:52:31.402Z,100.00
2022-08-18T06:55:05.598Z,100.00
2022-08-18T06:57:59.573Z,100.00
2022-08-18T07:00:32.556Z,100.00
2022-08-18T07:03:12.993Z,100.00
2022-08-18T07:05:56.922Z,100.00
2022-08-18T07:08:24.109Z,100.00
2022-08-18T07:10:52.815Z,100.00
2022-08-18T07:13:30.266Z,100.00
2022-08-18T07:16:47.348Z,99.93
2022-08-18T07:19:24.261Z,98.65
2022-08-18T07:22:17.343Z,98.69
2022-08-18T07:24:55.055Z,97.91
2022-08-18T07:27:49.254Z,97.83
2022-08-18T07:30:21.477Z,95.85
2022-08-18T07:33:09.625Z,98.22
2022-08-18T07:35:56.476Z,97.76
2022-08-18T07:38:51.666Z,97.68
2022-08-18T07:41:41.542Z,99.31
2022-08-18T07:44:27.757Z,96.90
2022-08-18T07:47:10.485Z,97.80
2022-08-18T07:49:46.073Z,99.30
2022-08-18T07:52:47.345Z,99.73
2022-08-18T07:55:28.658Z,96.50
2022-08-18T07:58:18.012Z,99.12
2022-08-18T08:01:00.446Z,97.96
2022-08-18T08:03:38.486Z,97.38
2022-08-18T08:06:32.834Z,99.70
2022-08-18T08:09:11.563Z,100.00
2022-08-18T08:12:22.448Z,100.00
2022-08-18T08:14:52.430Z,98.42
2022-08-18T08:17:25.224Z,99.38
2022-08-18T08:20:12.269Z,99.75
2022-08-18T08:22:46.192Z,100.00
2022-08-18T08:25:44.994Z,98.58
2022-08-18T08:28:29.327Z,99.65
2022-08-18T08:31:33.307Z,100.00
2022-08-18T08:34:23.701Z,97.34
2022-08-18T08:36:56.070Z,97.24
2022-08-18T08:39:34.201Z,96.24
2022-08-18T08:42:31.844Z,95.34
2022-08-18T08:45:07.304Z,93.96
2022-08-18T08:47:33.869Z,94.21
2022-08-18T08:50:16.891Z,92.18
2022-08-18T08:52:56.965Z,89.84
2022-08-18T08:55:43.857Z,91.74
2022-08-18T08:58:10.337Z,91.47
2022-08-18T09:00:39.906Z,89.24
2022-08-18T09:03:30.231Z,87.87
2022-08-18T09:06:18.354Z,84.64
2022-08-18T09:08:56.925Z,85.18
2022-08-18T09:11:49.212Z,84.65
2022-08-18T09:14:24.798Z,81.44
2022-08-18T09:17:42.500Z,85.42
2022-08-18T09:20:18.318Z,81.59
2022-08-18T09:22:59.522Z,82.52
2022-08-18T09:25:54.780Z,82.88
2022-08-18T09:28:57.652Z,80.44
2022-08-18T09:31:32.352Z,81.94
2022-08-18T09:34:14.043Z,81.52
2022-08-18T09:36:41.952Z,81.83
2022-08-18T09:39:36.101Z,79.95
2022-08-18T09:42:12.542Z,79.94
2022-08-18T09:44:47.915Z,80.17
2022-08-18T09:47:22.024Z,77.94
2022-08-18T09:50:26.570Z,74.94
2022-08-18T09:52:56.117Z,76.59
2022-08-18T09:55:24.307Z,75.81
2022-08-18T09:58:23.009Z,78.55
2022-08-18T10:01:31.871Z,78.07
2022-08-18T10:04:14.020Z,75.68
2022-08-18T10:06:49.080Z,75.38
2022-08-18T10:09:52.223Z,77.28
2022-08-18T10:12:31.094Z,79.69
2022-08-18T10:15:33.007Z,79.98
2022-08-18T10:18:32.521Z,81.83
2022-08-18T10:21:23.083Z,79.83
2022-08-18T10:24:32.253Z,81.23
2022-08-18T10:26:54.897Z,83.31
2022-08-18T10:29:24.855Z,78.06
2022-08-18T10:31:58.569Z,78.90
2022-08-18T10:34:52.119Z,76.66
2022-08-18T10:37:25.896Z,77.63
2022-08-18T10:39:57.960Z,75.81
2022-08-18T10:42:45.804Z,75.87
2022-08-18T10:45:24.545Z,74.52
2022-08-18T10:48:17.573Z,69.15
2022-08-18T10:51:05.482Z,69.26
2022-08-18T10:53:53.872Z,69.65
2022-08-18T10:56:26.622Z,71.06
2022-08-18T10:59:18.546Z,72.83
2022-08-18T11:01:57.224Z,72.18
2022-08-18T11:04:41.395Z,73.71
2022-08-18T11:07:19.422Z,73.81
2022-08-18T11:10:12.924Z,75.54
2022-08-18T11:12:47.655Z,73.17
2022-08-18T11:15:24.095Z,74.32
2022-08-18T11:18:10.136Z,73.13
2022-08-18T11:20:37.985Z,74.31
2022-08-18T11:23:14.400Z,74.42
2022-08-18T11:25:42.747Z,75.79
2022-08-18T11:28:32.532Z,73.03
2022-08-18T11:30:59.718Z,74.99
2022-08-18T11:33:27.699Z,74.98
2022-08-18T11:35:59.248Z,74.58
2022-08-18T11:38:33.000Z,75.73
2022-08-18T11:41:23.324Z,73.96
2022-08-18T11:43:59.855Z,73.33
2022-08-18T11:46:42.973Z,72.28
2022-08-18T11:49:33.728Z,71.87
2022-08-18T11:52:07.109Z,71.54
2022-08-18T11:54:50.894Z,69.93
2022-08-18T11:57:49.818Z,69.05
2022-08-18T12:00:43.297Z,67.49
2022-08-18T12:03:36.981Z,67.61
2022-08-18T12:06:30.790Z,67.53
2022-08-18T12:09:45.514Z,69.64
2022-08-18T12:12:30.455Z,69.27
2022-08-18T12:15:07.984Z,69.58
2022-08-18T12:20:36.488Z,70.41
2022-08-18T12:23:05.622Z,71.21
2022-08-18T12:25:32.492Z,70.72
2022-08-18T12:27:59.015Z,70.93
2022-08-18T12:30:27.924Z,69.23
2022-08-18T12:33:05.873Z,68.68
2022-08-18T12:35:42.332Z,68.98
2022-08-18T12:38:17.858Z,69.58
2022-08-18T12:40:51.923Z,69.28
2022-08-18T12:43:20.963Z,69.71
2022-08-18T12:45:47.730Z,69.01
2022-08-18T12:48:14.411Z,70.24
2022-08-18T12:50:54.485Z,70.12
2022-08-18T12:53:30.778Z,71.31
2022-08-18T12:56:26.800Z,70.16
2022-08-18T12:58:55.490Z,70.82
2022-08-18T13:01:23.276Z,70.82
2022-08-18T13:07:01.496Z,71.77
2022-08-18T13:09:52.673Z,72.24
2022-08-18T13:12:25.564Z,72.37
2022-08-18T13:14:55.401Z,71.62
2022-08-18T13:17:32.543Z,70.59
2022-08-18T13:20:14.773Z,71.11
2022-08-18T13:22:43.841Z,70.95
2022-08-18T13:25:32.911Z,70.56
2022-08-18T13:28:02.203Z,71.66
2022-08-18T13:30:32.096Z,71.93
2022-08-18T13:33:05.908Z,70.88
2022-08-18T13:35:52.392Z,71.72
2022-08-18T13:38:27.289Z,70.65
2022-08-18T13:40:57.662Z,70.59
2022-08-18T13:43:30.382Z,69.25
2022-08-18T13:46:00.009Z,68.17
2022-08-18T13:48:30.499Z,69.28
2022-08-18T13:51:01.743Z,69.02
2022-08-18T13:53:32.053Z,69.34
2022-08-18T13:55:59.098Z,69.64
2022-08-18T13:58:27.615Z,69.42
2022-08-18T14:03:53.996Z,70.75
2022-08-18T14:06:24.195Z,70.87
2022-08-18T14:08:58.485Z,71.76
2022-08-18T14:11:33.326Z,69.98
2022-08-18T14:14:01.938Z,70.40
2022-08-18T14:16:28.715Z,70.45
2022-08-18T14:19:16.177Z,70.46
2022-08-18T14:22:06.421Z,70.60
2022-08-18T14:25:00.773Z,70.03
2022-08-18T14:27:35.326Z,70.40
2022-08-18T14:30:10.685Z,70.64
2022-08-18T14:32:49.144Z,70.98
2022-08-18T14:36:04.044Z,70.62
2022-08-18T14:38:10.053Z,70.96
2022-08-18T14:40:41.815Z,71.15
2022-08-18T14:43:11.617Z,71.09
2022-08-18T14:45:48.927Z,71.72
2022-08-18T14:48:20.511Z,72.17
2022-08-18T14:50:55.480Z,72.18
2022-08-18T14:53:27.048Z,71.94
2022-08-18T14:55:54.995Z,73.21
2022-08-18T14:58:28.872Z,71.19
2022-08-18T15:01:00.767Z,73.02
2022-08-18T15:03:31.556Z,72.93
2022-08-18T15:06:04.668Z,73.39
2022-08-18T15:08:34.362Z,73.75
2022-08-18T15:11:03.509Z,73.22
2022-08-18T15:13:32.491Z,74.79
2022-08-18T15:16:01.782Z,74.18
2022-08-18T15:18:31.396Z,74.41
2022-08-18T15:21:35.671Z,74.31
2022-08-18T15:24:25.103Z,74.57
2022-08-18T15:26:56.839Z,74.16
2022-08-18T15:29:27.990Z,76.08
2022-08-18T15:32:00.988Z,75.27
2022-08-18T15:34:31.899Z,75.80
2022-08-18T15:37:09.978Z,75.37
2022-08-18T15:39:36.967Z,76.22
2022-08-18T15:42:13.550Z,76.93
2022-08-18T15:44:41.014Z,76.38
2022-08-18T15:47:13.571Z,77.04
2022-08-18T15:49:47.496Z,77.26
2022-08-18T15:52:15.191Z,76.09
2022-08-18T15:54:50.228Z,77.38
2022-08-18T15:57:24.312Z,77.30
2022-08-18T16:00:06.197Z,76.74
2022-08-18T16:02:32.850Z,77.44
2022-08-18T16:05:10.189Z,77.89
2022-08-18T16:07:40.952Z,79.49
2022-08-18T16:10:18.707Z,80.56
2022-08-18T16:12:49.051Z,79.40
2022-08-18T16:15:21.156Z,78.87
2022-08-18T16:17:53.674Z,79.44
2022-08-18T16:20:23.576Z,80.37
2022-08-18T16:22:51.382Z,79.52
2022-08-18T16:25:18.155Z,78.66
2022-08-18T16:27:47.939Z,76.75
2022-08-18T16:30:19.231Z,78.85
2022-08-18T16:32:47.328Z,78.63
2022-08-18T16:35:17.188Z,79.87
2022-08-18T16:37:46.693Z,84.02
2022-08-18T16:40:15.251Z,87.02
2022-08-18T16:42:44.319Z,88.21
2022-08-18T16:45:13.309Z,89.97
2022-08-18T16:47:43.630Z,90.23
2022-08-18T16:50:18.078Z,91.73
2022-08-18T16:52:44.851Z,94.66
2022-08-18T16:55:12.790Z,94.64
2022-08-18T16:57:59.958Z,96.05
2022-08-18T17:00:54.795Z,98.33
2022-08-18T17:03:41.727Z,97.55
2022-08-18T17:06:11.278Z,100.00
2022-08-18T17:08:39.595Z,100.00
2022-08-18T17:11:12.684Z,100.00
2022-08-18T17:13:40.349Z,100.00
2022-08-18T17:16:12.962Z,100.00
2022-08-18T17:18:40.267Z,100.00
2022-08-18T17:21:08.860Z,100.00
2022-08-18T17:23:39.307Z,100.00
2022-08-18T17:26:12.606Z,100.00
2022-08-18T17:28:52.566Z,100.00
2022-08-18T17:31:24.672Z,100.00
2022-08-18T17:33:59.126Z,100.00
2022-08-18T17:36:36.300Z,100.00
2022-08-18T17:39:08.755Z,100.00
2022-08-18T17:41:58.116Z,100.00
2022-08-18T17:44:31.330Z,100.00
2022-08-18T17:47:02.389Z,100.00
2022-08-18T17:50:27.126Z,100.00
2022-08-18T17:52:53.355Z,100.00
2022-08-18T17:55:39.268Z,100.00
2022-08-18T17:58:24.833Z,100.00
2022-08-18T18:00:51.584Z,100.00
2022-08-18T18:03:20.320Z,100.00
2022-08-18T18:05:53.401Z,100.00
2022-08-18T18:08:20.371Z,100.00
2022-08-18T18:11:07.658Z,100.00
2022-08-18T18:13:36.759Z,100.00
2022-08-18T18:16:41.537Z,100.00
2022-08-18T18:19:13.284Z,100.00
2022-08-18T18:22:00.843Z,100.00
2022-08-18T18:24:32.531Z,100.00
2022-08-18T18:27:02.775Z,100.00
2022-08-18T18:29:37.738Z,100.00
2022-08-18T18:32:24.281Z,100.00
2022-08-18T18:35:18.192Z,100.00
2022-08-18T18:37:52.338Z,100.00
2022-08-18T18:40:48.066Z,100.00
2022-08-18T18:43:39.426Z,100.00
2022-08-18T18:46:18.612Z,100.00
2022-08-18T18:49:04.948Z,100.00
2022-08-18T18:52:04.744Z,100.00
2022-08-18T18:55:07.586Z,100.00
2022-08-18T18:57:54.241Z,100.00
2022-08-18T19:00:38.925Z,100.00
2022-08-18T19:03:19.245Z,100.00
2022-08-18T19:06:04.562Z,100.00
2022-08-18T19:08:42.647Z,100.00
2022-08-18T19:11:29.087Z,100.00
2022-08-18T19:14:07.325Z,100.00
2022-08-18T19:16:41.661Z,100.00
2022-08-18T19:19:37.895Z,100.00
2022-08-18T19:22:27.762Z,100.00
2022-08-18T19:24:58.155Z,100.00
2022-08-18T19:27:34.191Z,100.00
2022-08-18T19:30:08.935Z,100.00
2022-08-18T19:32:47.821Z,100.00
2022-08-18T19:35:39.399Z,100.00
2022-08-18T19:38:24.957Z,100.00
2022-08-18T19:41:05.753Z,100.00
2022-08-18T19:43:40.968Z,100.00
2022-08-18T19:46:20.832Z,100.00
2022-08-18T19:48:52.892Z,100.00
2022-08-18T19:51:32.132Z,100.00
2022-08-18T19:54:27.504Z,100.00
2022-08-18T19:57:03.697Z,100.00
2022-08-18T19:59:43.067Z,100.00
2022-08-18T20:02:44.462Z,100.00
2022-08-18T20:05:36.372Z,100.00
2022-08-18T20:08:24.330Z,100.00
2022-08-18T20:11:16.746Z,100.00
2022-08-18T20:13:49.525Z,100.00
2022-08-18T20:16:44.623Z,100.00
2022-08-18T20:19:36.130Z,100.00
2022-08-18T20:22:05.857Z,100.00
2022-08-18T20:24:38.807Z,100.00
2022-08-18T20:27:34.136Z,100.00
2022-08-18T20:30:45.527Z,100.00
2022-08-18T20:33:24.156Z,100.00
2022-08-18T20:36:26.021Z,100.00
2022-08-18T20:38:59.892Z,100.00
2022-08-18T20:41:29.736Z,100.00
2022-08-18T20:44:28.949Z,100.00
2022-08-18T20:47:14.146Z,100.00
2022-08-18T20:49:50.834Z,100.00
2022-08-18T20:52:29.598Z,100.00
2022-08-18T20:55:20.730Z,100.00
2022-08-18T20:57:55.334Z,100.00
2022-08-18T21:00:27.973Z,100.00
2022-08-18T21:02:59.652Z,100.00
2022-08-18T21:05:34.516Z,100.00
2022-08-18T21:08:16.563Z,100.00
2022-08-18T21:11:08.176Z,100.00
2022-08-18T21:13:41.001Z,100.00
2022-08-18T21:16:11.184Z,100.00
2022-08-18T21:18:41.236Z,100.00
2022-08-18T21:21:27.197Z,100.00
2022-08-18T21:23:58.990Z,100.00
2022-08-18T21:26:30.262Z,100.00
2022-08-18T21:29:05.698Z,100.00
2022-08-18T21:31:43.819Z,100.00
2022-08-18T21:34:33.396Z,100.00
2022-08-18T21:37:10.166Z,100.00
2022-08-18T21:40:00.812Z,100.00
2022-08-18T21:42:46.032Z,100.00
2022-08-18T21:45:25.763Z,100.00
2022-08-18T21:47:58.673Z,100.00
2022-08-18T21:50:31.158Z,100.00
2022-08-18T21:52:58.741Z,100.00
2022-08-18T21:55:56.319Z,100.00
2022-08-18T21:58:32.719Z,100.00
2022-08-18T22:01:19.452Z,100.00
2022-08-18T22:03:58.330Z,100.00
2022-08-18T22:06:59.157Z,100.00
2022-08-18T22:09:48.235Z,100.00
2022-08-18T22:12:53.047Z,100.00
2022-08-18T22:15:25.623Z,100.00
2022-08-18T22:18:00.032Z,100.00
2022-08-18T22:20:35.672Z,100.00
2022-08-18T22:23:33.384Z,100.00
2022-08-18T22:26:21.027Z,100.00
2022-08-18T22:29:01.692Z,100.00
2022-08-18T22:31:43.432Z,100.00
2022-08-18T22:34:16.505Z,100.00
2022-08-18T22:36:52.753Z,100.00
2022-08-18T22:39:29.051Z,100.00
2022-08-18T22:41:55.704Z,100.00
2022-08-18T22:44:23.184Z,100.00
2022-08-18T22:46:50.130Z,100.00
2022-08-18T22:49:18.632Z,100.00
2022-08-18T22:51:48.463Z,100.00
2022-08-18T22:54:16.094Z,100.00
2022-08-18T22:56:53.777Z,100.00
2022-08-18T22:59:21.942Z,100.00
2022-08-18T23:01:51.102Z,100.00
2022-08-18T23:04:20.495Z,100.00
2022-08-18T23:06:53.732Z,100.00
2022-08-18T23:09:24.655Z,100.00
2022-08-18T23:11:53.334Z,100.00
2022-08-18T23:14:20.083Z,100.00
2022-08-18T23:16:47.009Z,100.00
2022-08-18T23:19:15.377Z,100.00
2022-08-18T23:21:42.853Z,100.00
2022-08-18T23:24:14.372Z,100.00
2022-08-18T23:26:41.969Z,100.00
2022-08-18T23:29:14.310Z,100.00
2022-08-18T23:31:46.115Z,100.00
2022-08-18T23:34:16.793Z,100.00
2022-08-18T23:36:51.431Z,100.00
2022-08-18T23:39:20.729Z,100.00
2022-08-18T23:41:50.087Z,100.00
2022-08-18T23:44:16.682Z,100.00
2022-08-18T23:46:44.545Z,100.00
2022-08-18T23:49:15.468Z,100.00
2022-08-18T23:51:49.108Z,100.00
2022-08-18T23:54:22.489Z,100.00
2022-08-18T23:56:51.384Z,100.00
2022-08-18T23:59:20.490Z,100.00
